KUVA

Details ICAO KUVA (UVA)
Name GARNER FLD
Region United States
Timezone America/Chicago (UTC-6.0)
Plans Departing 1
Arriving 4
Stats Elevation 942 ft / 287 m (AMSL)
Location 29.210375° -99.743072°
Runways 2
Magnetic Variation 4.914° E
Sunrise 2017-12-14 13:26:28 UTC / 2017-12-14 07:26:28 Local
Sunset 2017-12-14 23:43:53 UTC / 2017-12-14 17:43:53 Local
Advertisement - Login to hide

Runways

ID Width Length Bearing (true) Bearing (mag) Surface Threshold Offset Overrun Length
15 100 ft / 30 m 5,267 ft / 1,605 m 155.07° 150.16° Asphalt 0 ft / 0 m 0 ft / 0 m
15C 75 ft / 23 m 3,308 ft / 1,008 m 155.12° 150.21° Grass 0 ft / 0 m 0 ft / 0 m
33 100 ft / 30 m 5,267 ft / 1,605 m 335.08° 330.17° Asphalt 0 ft / 0 m 0 ft / 0 m
33C 75 ft / 23 m 3,308 ft / 1,008 m 335.13° 330.22° Grass 0 ft / 0 m 0 ft / 0 m

Map

Weather


0- 5 10 15 20 25 30 35+ Temperature / ° C

Clouds and Precipitation
Forecast for 2017-12-14 12:00 UTC. Updated 2 hours ago

Ground ~20,000 ft ~40,000 ft Winds

METAR

KUVA 141035Z AUTO 00000KT 10SM CLR 06/03 A2994 RMK AO2 T00560031

TAF

Not found

Frequencies

Recorded 124.17 MHz AWOS 3
Unicom 122.80 MHz CTAF/UNICOM
Warning: Do not use this data for real-world aviation or navigation. No guarantee of current accuracy is given.